sensor_id;sensor_type;location;lat;lon;timestamp;temperature;humidity
20700;DHT22;10511;51.232;9.420;2023-06-22T00:02:17;20.60;99.90
20700;DHT22;10511;51.232;9.420;2023-06-22T00:04:45;20.60;99.90
20700;DHT22;10511;51.232;9.420;2023-06-22T00:07:12;20.90;99.90
20700;DHT22;10511;51.232;9.420;2023-06-22T00:09:38;20.90;99.90
20700;DHT22;10511;51.232;9.420;2023-06-22T00:12:06;20.70;99.90
20700;DHT22;10511;51.232;9.420;2023-06-22T00:14:34;20.30;99.90
20700;DHT22;10511;51.232;9.420;2023-06-22T00:17:01;20.00;99.90
20700;DHT22;10511;51.232;9.420;2023-06-22T00:19:28;19.90;99.90
20700;DHT22;10511;51.232;9.420;2023-06-22T00:21:55;19.80;99.90
20700;DHT22;10511;51.232;9.420;2023-06-22T00:24:25;19.70;99.90
20700;DHT22;10511;51.232;9.420;2023-06-22T00:26:52;19.70;99.90
20700;DHT22;10511;51.232;9.420;2023-06-22T00:29:19;19.70;99.90
20700;DHT22;10511;51.232;9.420;2023-06-22T00:31:47;19.70;99.90
20700;DHT22;10511;51.232;9.420;2023-06-22T00:34:14;19.80;99.90
20700;DHT22;10511;51.232;9.420;2023-06-22T00:36:42;19.90;99.90
20700;DHT22;10511;51.232;9.420;2023-06-22T00:39:09;19.90;99.90
20700;DHT22;10511;51.232;9.420;2023-06-22T00:41:36;19.90;99.90
20700;DHT22;10511;51.232;9.420;2023-06-22T00:44:03;19.90;99.90
20700;DHT22;10511;51.232;9.420;2023-06-22T00:46:30;19.90;99.90
20700;DHT22;10511;51.232;9.420;2023-06-22T00:48:59;19.70;99.90
20700;DHT22;10511;51.232;9.420;2023-06-22T00:51:26;19.60;99.90
20700;DHT22;10511;51.232;9.420;2023-06-22T00:53:53;19.50;99.90
20700;DHT22;10511;51.232;9.420;2023-06-22T00:56:22;19.40;99.90
20700;DHT22;10511;51.232;9.420;2023-06-22T00:58:51;19.30;99.90
20700;DHT22;10511;51.232;9.420;2023-06-22T01:01:19;19.20;99.90
20700;DHT22;10511;51.232;9.420;2023-06-22T01:03:49;19.20;99.90
20700;DHT22;10511;51.232;9.420;2023-06-22T01:06:30;19.10;99.90
20700;DHT22;10511;51.232;9.420;2023-06-22T01:09:08;19.10;99.90
20700;DHT22;10511;51.232;9.420;2023-06-22T01:11:44;19.10;99.90
20700;DHT22;10511;51.232;9.420;2023-06-22T01:14:15;19.00;99.90
20700;DHT22;10511;51.232;9.420;2023-06-22T01:16:45;19.00;99.90
20700;DHT22;10511;51.232;9.420;2023-06-22T01:19:35;18.90;99.90
20700;DHT22;10511;51.232;9.420;2023-06-22T01:22:05;18.90;99.90
20700;DHT22;10511;51.232;9.420;2023-06-22T01:24:39;18.90;99.90
20700;DHT22;10511;51.232;9.420;2023-06-22T01:27:17;18.90;99.90
20700;DHT22;10511;51.232;9.420;2023-06-22T01:29:55;18.90;99.90
20700;DHT22;10511;51.232;9.420;2023-06-22T01:32:27;18.80;99.90
20700;DHT22;10511;51.232;9.420;2023-06-22T01:34:55;18.80;99.90
20700;DHT22;10511;51.232;9.420;2023-06-22T01:37:22;18.70;99.90
20700;DHT22;10511;51.232;9.420;2023-06-22T01:39:49;18.70;99.90
20700;DHT22;10511;51.232;9.420;2023-06-22T01:42:17;18.70;99.90
20700;DHT22;10511;51.232;9.420;2023-06-22T01:44:44;18.70;99.90
20700;DHT22;10511;51.232;9.420;2023-06-22T01:47:13;18.70;99.90
20700;DHT22;10511;51.232;9.420;2023-06-22T01:49:40;18.70;99.90
20700;DHT22;10511;51.232;9.420;2023-06-22T01:52:07;18.70;99.90
20700;DHT22;10511;51.232;9.420;2023-06-22T01:54:34;18.80;99.90
20700;DHT22;10511;51.232;9.420;2023-06-22T01:57:01;18.80;99.90
20700;DHT22;10511;51.232;9.420;2023-06-22T01:59:34;18.90;99.90
20700;DHT22;10511;51.232;9.420;2023-06-22T02:02:08;18.90;99.90
20700;DHT22;10511;51.232;9.420;2023-06-22T02:04:44;18.90;99.90
20700;DHT22;10511;51.232;9.420;2023-06-22T02:07:15;19.00;99.90
20700;DHT22;10511;51.232;9.420;2023-06-22T02:09:45;19.00;99.90
20700;DHT22;10511;51.232;9.420;2023-06-22T02:12:17;19.00;99.90
20700;DHT22;10511;51.232;9.420;2023-06-22T02:14:45;19.00;99.90
20700;DHT22;10511;51.232;9.420;2023-06-22T02:17:13;19.00;99.90
20700;DHT22;10511;51.232;9.420;2023-06-22T02:19:42;19.00;99.90
20700;DHT22;10511;51.232;9.420;2023-06-22T02:22:09;19.00;99.90
20700;DHT22;10511;51.232;9.420;2023-06-22T02:24:38;19.00;99.90
20700;DHT22;10511;51.232;9.420;2023-06-22T02:27:05;19.10;99.90
20700;DHT22;10511;51.232;9.420;2023-06-22T02:29:32;19.10;99.90
20700;DHT22;10511;51.232;9.420;2023-06-22T02:31:59;19.40;99.90
20700;DHT22;10511;51.232;9.420;2023-06-22T02:34:26;19.50;99.90
20700;DHT22;10511;51.232;9.420;2023-06-22T02:36:54;19.60;99.90
20700;DHT22;10511;51.232;9.420;2023-06-22T02:39:22;19.60;99.90
20700;DHT22;10511;51.232;9.420;2023-06-22T02:41:50;19.70;99.90
20700;DHT22;10511;51.232;9.420;2023-06-22T02:44:17;19.70;99.90
20700;DHT22;10511;51.232;9.420;2023-06-22T02:46:45;19.70;99.90
20700;DHT22;10511;51.232;9.420;2023-06-22T02:49:12;19.60;99.90
20700;DHT22;10511;51.232;9.420;2023-06-22T02:51:41;19.60;99.90
20700;DHT22;10511;51.232;9.420;2023-06-22T02:54:09;19.40;99.90
20700;DHT22;10511;51.232;9.420;2023-06-22T02:56:36;19.30;99.90
20700;DHT22;10511;51.232;9.420;2023-06-22T02:59:03;19.20;99.90
20700;DHT22;10511;51.232;9.420;2023-06-22T03:01:30;19.10;99.90
20700;DHT22;10511;51.232;9.420;2023-06-22T03:04:05;18.90;99.90
20700;DHT22;10511;51.232;9.420;2023-06-22T03:06:32;18.80;99.90
20700;DHT22;10511;51.232;9.420;2023-06-22T03:09:00;18.70;99.90
20700;DHT22;10511;51.232;9.420;2023-06-22T03:11:30;18.70;99.90
20700;DHT22;10511;51.232;9.420;2023-06-22T03:13:57;18.70;99.90
20700;DHT22;10511;51.232;9.420;2023-06-22T03:16:24;18.60;99.90
20700;DHT22;10511;51.232;9.420;2023-06-22T03:18:51;18.40;99.90
20700;DHT22;10511;51.232;9.420;2023-06-22T03:21:19;18.30;99.90
20700;DHT22;10511;51.232;9.420;2023-06-22T03:23:45;18.30;99.90
20700;DHT22;10511;51.232;9.420;2023-06-22T03:26:12;18.30;99.90
20700;DHT22;10511;51.232;9.420;2023-06-22T03:28:40;18.40;99.90
20700;DHT22;10511;51.232;9.420;2023-06-22T03:31:08;18.40;99.90
20700;DHT22;10511;51.232;9.420;2023-06-22T03:33:35;18.40;99.90
20700;DHT22;10511;51.232;9.420;2023-06-22T03:36:02;18.30;99.90
20700;DHT22;10511;51.232;9.420;2023-06-22T03:38:29;18.30;99.90
20700;DHT22;10511;51.232;9.420;2023-06-22T03:40:56;18.30;99.90
20700;DHT22;10511;51.232;9.420;2023-06-22T03:43:23;18.30;99.90
20700;DHT22;10511;51.232;9.420;2023-06-22T03:45:51;18.30;99.90
20700;DHT22;10511;51.232;9.420;2023-06-22T03:48:18;18.40;99.90
20700;DHT22;10511;51.232;9.420;2023-06-22T03:50:45;18.40;99.90
20700;DHT22;10511;51.232;9.420;2023-06-22T03:53:12;18.40;99.90
20700;DHT22;10511;51.232;9.420;2023-06-22T03:55:48;18.40;99.90
20700;DHT22;10511;51.232;9.420;2023-06-22T03:58:16;18.40;99.90
20700;DHT22;10511;51.232;9.420;2023-06-22T04:00:45;18.30;99.90
20700;DHT22;10511;51.232;9.420;2023-06-22T04:03:13;18.30;99.90
20700;DHT22;10511;51.232;9.420;2023-06-22T04:05:40;18.40;99.90
20700;DHT22;10511;51.232;9.420;2023-06-22T04:08:07;18.40;99.90
20700;DHT22;10511;51.232;9.420;2023-06-22T04:10:34;18.40;99.90
20700;DHT22;10511;51.232;9.420;2023-06-22T04:13:01;18.40;99.90
20700;DHT22;10511;51.232;9.420;2023-06-22T04:15:28;18.40;99.90
20700;DHT22;10511;51.232;9.420;2023-06-22T04:17:55;18.50;99.90
20700;DHT22;10511;51.232;9.420;2023-06-22T04:20:24;18.40;99.90
20700;DHT22;10511;51.232;9.420;2023-06-22T04:22:52;18.40;99.90
20700;DHT22;10511;51.232;9.420;2023-06-22T04:25:21;18.40;99.90
20700;DHT22;10511;51.232;9.420;2023-06-22T04:27:48;18.40;99.90
20700;DHT22;10511;51.232;9.420;2023-06-22T04:30:15;18.50;99.90
20700;DHT22;10511;51.232;9.420;2023-06-22T04:32:42;18.50;99.90
20700;DHT22;10511;51.232;9.420;2023-06-22T04:35:09;18.50;99.90
20700;DHT22;10511;51.232;9.420;2023-06-22T04:37:38;18.50;99.90
20700;DHT22;10511;51.232;9.420;2023-06-22T04:40:06;18.50;99.90
20700;DHT22;10511;51.232;9.420;2023-06-22T04:42:34;18.50;99.90
20700;DHT22;10511;51.232;9.420;2023-06-22T04:45:02;18.60;99.90
20700;DHT22;10511;51.232;9.420;2023-06-22T04:47:30;18.60;99.90
20700;DHT22;10511;51.232;9.420;2023-06-22T04:49:56;18.60;99.90
20700;DHT22;10511;51.232;9.420;2023-06-22T04:52:23;18.60;99.90
20700;DHT22;10511;51.232;9.420;2023-06-22T04:54:51;18.50;99.90
20700;DHT22;10511;51.232;9.420;2023-06-22T04:57:21;18.60;99.90
20700;DHT22;10511;51.232;9.420;2023-06-22T04:59:58;18.50;99.90
20700;DHT22;10511;51.232;9.420;2023-06-22T05:02:40;18.50;99.90
20700;DHT22;10511;51.232;9.420;2023-06-22T05:05:07;18.60;99.90
20700;DHT22;10511;51.232;9.420;2023-06-22T05:07:39;18.60;99.90
20700;DHT22;10511;51.232;9.420;2023-06-22T05:10:10;18.70;99.90
20700;DHT22;10511;51.232;9.420;2023-06-22T05:12:38;18.70;99.90
20700;DHT22;10511;51.232;9.420;2023-06-22T05:15:06;18.70;99.90
20700;DHT22;10511;51.232;9.420;2023-06-22T05:17:33;18.70;99.90
20700;DHT22;10511;51.232;9.420;2023-06-22T05:20:00;18.70;99.90
20700;DHT22;10511;51.232;9.420;2023-06-22T05:22:28;18.60;99.90
20700;DHT22;10511;51.232;9.420;2023-06-22T05:24:54;18.50;99.90
20700;DHT22;10511;51.232;9.420;2023-06-22T05:27:23;18.60;99.90
20700;DHT22;10511;51.232;9.420;2023-06-22T05:29:49;18.70;99.90
20700;DHT22;10511;51.232;9.420;2023-06-22T05:32:16;18.70;99.90
20700;DHT22;10511;51.232;9.420;2023-06-22T05:34:44;18.80;99.90
20700;DHT22;10511;51.232;9.420;2023-06-22T05:37:11;18.90;99.90
20700;DHT22;10511;51.232;9.420;2023-06-22T05:39:38;18.90;99.90
20700;DHT22;10511;51.232;9.420;2023-06-22T05:42:05;18.90;99.90
20700;DHT22;10511;51.232;9.420;2023-06-22T05:44:33;19.00;99.90
20700;DHT22;10511;51.232;9.420;2023-06-22T05:47:00;19.10;99.90
20700;DHT22;10511;51.232;9.420;2023-06-22T05:49:28;19.10;99.90
20700;DHT22;10511;51.232;9.420;2023-06-22T05:51:58;19.10;99.90
20700;DHT22;10511;51.232;9.420;2023-06-22T05:54:25;19.10;99.90
20700;DHT22;10511;51.232;9.420;2023-06-22T05:56:52;19.10;99.90
20700;DHT22;10511;51.232;9.420;2023-06-22T05:59:19;19.10;99.90
20700;DHT22;10511;51.232;9.420;2023-06-22T06:01:47;19.20;99.90
20700;DHT22;10511;51.232;9.420;2023-06-22T06:04:16;19.20;99.90
20700;DHT22;10511;51.232;9.420;2023-06-22T06:06:43;19.30;99.90
20700;DHT22;10511;51.232;9.420;2023-06-22T06:09:10;19.40;99.90
20700;DHT22;10511;51.232;9.420;2023-06-22T06:11:37;19.30;99.90
20700;DHT22;10511;51.232;9.420;2023-06-22T06:14:05;19.30;99.90
20700;DHT22;10511;51.232;9.420;2023-06-22T06:16:32;19.30;99.90
20700;DHT22;10511;51.232;9.420;2023-06-22T06:19:00;19.40;99.90
20700;DHT22;10511;51.232;9.420;2023-06-22T06:21:27;19.40;99.90
20700;DHT22;10511;51.232;9.420;2023-06-22T06:23:54;19.40;99.90
20700;DHT22;10511;51.232;9.420;2023-06-22T06:26:21;19.50;99.90
20700;DHT22;10511;51.232;9.420;2023-06-22T06:28:53;19.50;99.90
20700;DHT22;10511;51.232;9.420;2023-06-22T06:31:20;19.60;99.90
20700;DHT22;10511;51.232;9.420;2023-06-22T06:33:47;19.60;99.90
20700;DHT22;10511;51.232;9.420;2023-06-22T06:36:15;19.50;99.90
20700;DHT22;10511;51.232;9.420;2023-06-22T06:38:42;19.60;99.90
20700;DHT22;10511;51.232;9.420;2023-06-22T06:41:09;19.50;99.90
20700;DHT22;10511;51.232;9.420;2023-06-22T06:43:36;19.50;99.90
20700;DHT22;10511;51.232;9.420;2023-06-22T06:46:02;19.50;99.90
20700;DHT22;10511;51.232;9.420;2023-06-22T06:48:29;19.50;99.90
20700;DHT22;10511;51.232;9.420;2023-06-22T06:50:56;19.60;99.90
20700;DHT22;10511;51.232;9.420;2023-06-22T06:53:24;19.70;99.90
20700;DHT22;10511;51.232;9.420;2023-06-22T06:55:51;19.70;99.90
20700;DHT22;10511;51.232;9.420;2023-06-22T06:58:18;19.80;99.90
20700;DHT22;10511;51.232;9.420;2023-06-22T07:00:45;19.80;99.90
20700;DHT22;10511;51.232;9.420;2023-06-22T07:03:11;19.90;99.90
20700;DHT22;10511;51.232;9.420;2023-06-22T07:05:38;19.90;99.90
20700;DHT22;10511;51.232;9.420;2023-06-22T07:08:05;20.10;99.90
20700;DHT22;10511;51.232;9.420;2023-06-22T07:10:33;20.30;99.90
20700;DHT22;10511;51.232;9.420;2023-06-22T07:13:01;20.40;99.90
20700;DHT22;10511;51.232;9.420;2023-06-22T07:15:27;20.60;99.90
20700;DHT22;10511;51.232;9.420;2023-06-22T07:17:54;20.80;99.90
20700;DHT22;10511;51.232;9.420;2023-06-22T07:20:21;21.00;99.90
20700;DHT22;10511;51.232;9.420;2023-06-22T07:22:48;21.20;99.90
20700;DHT22;10511;51.232;9.420;2023-06-22T07:25:15;21.40;99.90
20700;DHT22;10511;51.232;9.420;2023-06-22T07:27:57;21.60;99.90
20700;DHT22;10511;51.232;9.420;2023-06-22T07:30:24;21.80;99.90
20700;DHT22;10511;51.232;9.420;2023-06-22T07:32:51;22.00;99.90
20700;DHT22;10511;51.232;9.420;2023-06-22T07:35:18;22.10;99.90
20700;DHT22;10511;51.232;9.420;2023-06-22T07:37:45;22.20;99.90
20700;DHT22;10511;51.232;9.420;2023-06-22T07:40:12;22.30;99.90
20700;DHT22;10511;51.232;9.420;2023-06-22T07:42:39;22.40;99.90
20700;DHT22;10511;51.232;9.420;2023-06-22T07:45:08;22.50;99.90
20700;DHT22;10511;51.232;9.420;2023-06-22T07:47:35;22.50;99.90
20700;DHT22;10511;51.232;9.420;2023-06-22T07:50:02;22.60;99.90
20700;DHT22;10511;51.232;9.420;2023-06-22T07:52:29;22.80;99.90
20700;DHT22;10511;51.232;9.420;2023-06-22T07:54:56;22.80;99.90
20700;DHT22;10511;51.232;9.420;2023-06-22T07:57:23;22.80;99.90
20700;DHT22;10511;51.232;9.420;2023-06-22T07:59:57;22.80;99.90
20700;DHT22;10511;51.232;9.420;2023-06-22T08:02:25;22.90;99.90
20700;DHT22;10511;51.232;9.420;2023-06-22T08:04:52;23.00;99.90
20700;DHT22;10511;51.232;9.420;2023-06-22T08:07:19;23.00;99.90
20700;DHT22;10511;51.232;9.420;2023-06-22T08:09:47;23.00;99.90
20700;DHT22;10511;51.232;9.420;2023-06-22T08:12:14;23.10;99.90
20700;DHT22;10511;51.232;9.420;2023-06-22T08:14:42;23.10;99.90
20700;DHT22;10511;51.232;9.420;2023-06-22T08:17:09;23.20;99.90
20700;DHT22;10511;51.232;9.420;2023-06-22T08:19:40;23.20;99.90
20700;DHT22;10511;51.232;9.420;2023-06-22T08:22:07;23.30;99.90
20700;DHT22;10511;51.232;9.420;2023-06-22T08:24:34;23.50;99.90
20700;DHT22;10511;51.232;9.420;2023-06-22T08:27:00;23.70;99.90
20700;DHT22;10511;51.232;9.420;2023-06-22T08:29:27;23.70;99.90
20700;DHT22;10511;51.232;9.420;2023-06-22T08:31:54;23.80;99.90
20700;DHT22;10511;51.232;9.420;2023-06-22T08:34:21;23.90;99.90
20700;DHT22;10511;51.232;9.420;2023-06-22T08:36:49;24.10;99.90
20700;DHT22;10511;51.232;9.420;2023-06-22T08:39:17;24.10;99.90
20700;DHT22;10511;51.232;9.420;2023-06-22T08:41:44;24.20;99.90
20700;DHT22;10511;51.232;9.420;2023-06-22T08:44:10;24.30;99.90
20700;DHT22;10511;51.232;9.420;2023-06-22T08:46:37;24.40;99.90
20700;DHT22;10511;51.232;9.420;2023-06-22T08:49:06;24.50;99.90
20700;DHT22;10511;51.232;9.420;2023-06-22T08:51:33;24.70;99.90
20700;DHT22;10511;51.232;9.420;2023-06-22T08:54:02;24.70;99.90
20700;DHT22;10511;51.232;9.420;2023-06-22T08:56:29;24.70;99.90
20700;DHT22;10511;51.232;9.420;2023-06-22T08:58:55;24.60;99.90
20700;DHT22;10511;51.232;9.420;2023-06-22T09:01:22;24.50;99.90
20700;DHT22;10511;51.232;9.420;2023-06-22T09:03:49;24.50;99.90
20700;DHT22;10511;51.232;9.420;2023-06-22T09:06:19;24.60;99.90
20700;DHT22;10511;51.232;9.420;2023-06-22T09:08:46;24.60;99.90
20700;DHT22;10511;51.232;9.420;2023-06-22T09:11:16;24.60;99.90
20700;DHT22;10511;51.232;9.420;2023-06-22T09:13:43;24.70;99.90
20700;DHT22;10511;51.232;9.420;2023-06-22T09:16:10;24.90;99.90
20700;DHT22;10511;51.232;9.420;2023-06-22T09:18:37;25.00;99.90
20700;DHT22;10511;51.232;9.420;2023-06-22T09:21:04;25.10;99.90
20700;DHT22;10511;51.232;9.420;2023-06-22T09:23:30;25.20;99.90
20700;DHT22;10511;51.232;9.420;2023-06-22T09:25:57;25.30;99.90
20700;DHT22;10511;51.232;9.420;2023-06-22T09:28:25;25.60;99.90
20700;DHT22;10511;51.232;9.420;2023-06-22T09:30:52;25.90;99.90
20700;DHT22;10511;51.232;9.420;2023-06-22T09:33:23;26.10;99.90
20700;DHT22;10511;51.232;9.420;2023-06-22T09:35:50;26.10;99.90
20700;DHT22;10511;51.232;9.420;2023-06-22T09:38:17;26.10;99.90
20700;DHT22;10511;51.232;9.420;2023-06-22T09:40:44;26.00;99.90
20700;DHT22;10511;51.232;9.420;2023-06-22T09:43:11;25.80;99.90
20700;DHT22;10511;51.232;9.420;2023-06-22T09:45:39;25.80;99.90
20700;DHT22;10511;51.232;9.420;2023-06-22T09:48:06;25.90;99.90
20700;DHT22;10511;51.232;9.420;2023-06-22T09:50:35;26.00;99.90
20700;DHT22;10511;51.232;9.420;2023-06-22T09:53:02;26.10;99.90
20700;DHT22;10511;51.232;9.420;2023-06-22T09:55:29;26.10;99.90
20700;DHT22;10511;51.232;9.420;2023-06-22T09:57:56;26.30;99.90
20700;DHT22;10511;51.232;9.420;2023-06-22T10:00:23;26.40;99.90
20700;DHT22;10511;51.232;9.420;2023-06-22T10:02:53;26.40;99.90
20700;DHT22;10511;51.232;9.420;2023-06-22T10:05:21;26.60;99.90
20700;DHT22;10511;51.232;9.420;2023-06-22T10:07:48;26.60;99.90
20700;DHT22;10511;51.232;9.420;2023-06-22T10:10:14;26.50;99.90
20700;DHT22;10511;51.232;9.420;2023-06-22T10:12:43;26.60;99.90
20700;DHT22;10511;51.232;9.420;2023-06-22T10:15:10;26.80;99.90
20700;DHT22;10511;51.232;9.420;2023-06-22T10:17:38;27.00;99.90
20700;DHT22;10511;51.232;9.420;2023-06-22T10:20:07;27.40;99.90
20700;DHT22;10511;51.232;9.420;2023-06-22T10:22:38;27.50;99.90
20700;DHT22;10511;51.232;9.420;2023-06-22T10:25:07;27.50;99.90
20700;DHT22;10511;51.232;9.420;2023-06-22T10:27:34;27.40;99.90
20700;DHT22;10511;51.232;9.420;2023-06-22T10:30:01;27.30;99.90
20700;DHT22;10511;51.232;9.420;2023-06-22T10:32:28;27.30;99.90
20700;DHT22;10511;51.232;9.420;2023-06-22T10:34:54;27.30;99.90
20700;DHT22;10511;51.232;9.420;2023-06-22T10:37:23;27.30;99.90
20700;DHT22;10511;51.232;9.420;2023-06-22T10:39:50;27.40;99.90
20700;DHT22;10511;51.232;9.420;2023-06-22T10:42:17;27.40;99.90
20700;DHT22;10511;51.232;9.420;2023-06-22T10:44:43;27.50;99.90
20700;DHT22;10511;51.232;9.420;2023-06-22T10:47:10;27.50;99.90
20700;DHT22;10511;51.232;9.420;2023-06-22T10:49:38;27.70;99.90
20700;DHT22;10511;51.232;9.420;2023-06-22T10:52:06;27.90;99.90
20700;DHT22;10511;51.232;9.420;2023-06-22T10:54:35;27.80;99.90
20700;DHT22;10511;51.232;9.420;2023-06-22T10:57:02;27.90;99.90
20700;DHT22;10511;51.232;9.420;2023-06-22T10:59:29;27.90;99.90
20700;DHT22;10511;51.232;9.420;2023-06-22T11:01:56;27.80;99.90
20700;DHT22;10511;51.232;9.420;2023-06-22T11:04:23;27.90;99.90
20700;DHT22;10511;51.232;9.420;2023-06-22T11:06:50;27.90;99.90
20700;DHT22;10511;51.232;9.420;2023-06-22T11:09:17;28.00;99.90
20700;DHT22;10511;51.232;9.420;2023-06-22T11:11:50;28.10;99.90
20700;DHT22;10511;51.232;9.420;2023-06-22T11:14:18;28.10;99.90
20700;DHT22;10511;51.232;9.420;2023-06-22T11:16:45;28.20;99.90
20700;DHT22;10511;51.232;9.420;2023-06-22T11:19:12;28.20;99.90
20700;DHT22;10511;51.232;9.420;2023-06-22T11:21:39;28.40;99.90
20700;DHT22;10511;51.232;9.420;2023-06-22T11:24:06;28.70;99.90
20700;DHT22;10511;51.232;9.420;2023-06-22T11:26:33;28.80;99.90
20700;DHT22;10511;51.232;9.420;2023-06-22T11:29:05;29.00;99.90
20700;DHT22;10511;51.232;9.420;2023-06-22T11:31:32;29.10;99.90
20700;DHT22;10511;51.232;9.420;2023-06-22T11:33:59;29.00;99.90
20700;DHT22;10511;51.232;9.420;2023-06-22T11:36:26;28.60;99.90
20700;DHT22;10511;51.232;9.420;2023-06-22T11:38:54;28.40;99.90
20700;DHT22;10511;51.232;9.420;2023-06-22T11:41:21;28.20;99.90
20700;DHT22;10511;51.232;9.420;2023-06-22T11:43:48;28.30;99.90
20700;DHT22;10511;51.232;9.420;2023-06-22T11:46:16;28.60;99.90
20700;DHT22;10511;51.232;9.420;2023-06-22T11:48:43;28.70;99.90
20700;DHT22;10511;51.232;9.420;2023-06-22T11:51:11;28.70;99.90
20700;DHT22;10511;51.232;9.420;2023-06-22T11:53:38;28.60;99.90
20700;DHT22;10511;51.232;9.420;2023-06-22T11:56:04;28.40;99.90
20700;DHT22;10511;51.232;9.420;2023-06-22T11:58:31;28.60;99.90
20700;DHT22;10511;51.232;9.420;2023-06-22T12:00:58;28.90;99.90
20700;DHT22;10511;51.232;9.420;2023-06-22T12:03:26;29.10;99.90
20700;DHT22;10511;51.232;9.420;2023-06-22T12:05:53;29.10;99.90
20700;DHT22;10511;51.232;9.420;2023-06-22T12:08:20;29.00;99.90
20700;DHT22;10511;51.232;9.420;2023-06-22T12:10:48;28.60;99.90
20700;DHT22;10511;51.232;9.420;2023-06-22T12:13:15;28.40;99.90
20700;DHT22;10511;51.232;9.420;2023-06-22T12:15:42;28.30;99.90
20700;DHT22;10511;51.232;9.420;2023-06-22T12:18:09;28.30;99.90
20700;DHT22;10511;51.232;9.420;2023-06-22T12:20:37;28.30;99.90
20700;DHT22;10511;51.232;9.420;2023-06-22T12:23:04;28.40;99.90
20700;DHT22;10511;51.232;9.420;2023-06-22T12:25:31;28.50;99.90
20700;DHT22;10511;51.232;9.420;2023-06-22T12:27:58;28.50;99.90
20700;DHT22;10511;51.232;9.420;2023-06-22T12:30:25;28.60;99.90
20700;DHT22;10511;51.232;9.420;2023-06-22T12:32:51;28.50;99.90
20700;DHT22;10511;51.232;9.420;2023-06-22T12:35:18;28.60;99.90
20700;DHT22;10511;51.232;9.420;2023-06-22T12:37:46;28.80;99.90
20700;DHT22;10511;51.232;9.420;2023-06-22T12:40:13;28.90;99.90
20700;DHT22;10511;51.232;9.420;2023-06-22T12:42:40;29.10;99.90
20700;DHT22;10511;51.232;9.420;2023-06-22T12:45:08;29.30;99.90
20700;DHT22;10511;51.232;9.420;2023-06-22T12:47:36;29.70;99.90
20700;DHT22;10511;51.232;9.420;2023-06-22T12:50:03;29.70;99.90
20700;DHT22;10511;51.232;9.420;2023-06-22T12:52:30;29.80;99.90
20700;DHT22;10511;51.232;9.420;2023-06-22T12:54:59;29.70;99.90
20700;DHT22;10511;51.232;9.420;2023-06-22T12:57:26;29.70;99.90
20700;DHT22;10511;51.232;9.420;2023-06-22T12:59:53;29.70;99.90
20700;DHT22;10511;51.232;9.420;2023-06-22T13:02:19;29.50;99.90
20700;DHT22;10511;51.232;9.420;2023-06-22T13:04:49;29.30;99.90
20700;DHT22;10511;51.232;9.420;2023-06-22T13:07:16;29.20;99.90
20700;DHT22;10511;51.232;9.420;2023-06-22T13:09:43;29.20;99.90
20700;DHT22;10511;51.232;9.420;2023-06-22T13:12:13;29.30;99.90
20700;DHT22;10511;51.232;9.420;2023-06-22T13:14:40;29.40;99.90
20700;DHT22;10511;51.232;9.420;2023-06-22T13:17:08;29.30;99.90
20700;DHT22;10511;51.232;9.420;2023-06-22T13:19:35;29.20;99.90
20700;DHT22;10511;51.232;9.420;2023-06-22T13:22:04;29.00;99.90
20700;DHT22;10511;51.232;9.420;2023-06-22T13:24:32;29.10;99.90
20700;DHT22;10511;51.232;9.420;2023-06-22T13:26:59;29.20;99.90
20700;DHT22;10511;51.232;9.420;2023-06-22T13:29:27;29.40;99.90
20700;DHT22;10511;51.232;9.420;2023-06-22T13:31:54;29.40;99.90
20700;DHT22;10511;51.232;9.420;2023-06-22T13:34:22;29.20;99.90
20700;DHT22;10511;51.232;9.420;2023-06-22T13:36:49;29.20;99.90
20700;DHT22;10511;51.232;9.420;2023-06-22T13:39:16;29.00;99.90
20700;DHT22;10511;51.232;9.420;2023-06-22T13:41:43;28.70;99.90
20700;DHT22;10511;51.232;9.420;2023-06-22T13:44:09;28.50;99.90
20700;DHT22;10511;51.232;9.420;2023-06-22T13:46:38;28.40;99.90
20700;DHT22;10511;51.232;9.420;2023-06-22T13:49:05;28.30;99.90
20700;DHT22;10511;51.232;9.420;2023-06-22T13:51:31;28.20;99.90
20700;DHT22;10511;51.232;9.420;2023-06-22T13:53:58;28.10;99.90
20700;DHT22;10511;51.232;9.420;2023-06-22T13:56:25;28.00;99.90
20700;DHT22;10511;51.232;9.420;2023-06-22T13:58:52;27.90;99.90
20700;DHT22;10511;51.232;9.420;2023-06-22T14:01:19;27.90;99.90
20700;DHT22;10511;51.232;9.420;2023-06-22T14:03:48;27.80;99.90
20700;DHT22;10511;51.232;9.420;2023-06-22T14:06:15;27.80;99.90
20700;DHT22;10511;51.232;9.420;2023-06-22T14:08:41;27.70;99.90
20700;DHT22;10511;51.232;9.420;2023-06-22T14:11:09;27.70;99.90
20700;DHT22;10511;51.232;9.420;2023-06-22T14:13:36;27.70;99.90
20700;DHT22;10511;51.232;9.420;2023-06-22T14:16:03;27.60;99.90
20700;DHT22;10511;51.232;9.420;2023-06-22T14:18:31;27.50;99.90
20700;DHT22;10511;51.232;9.420;2023-06-22T14:20:59;27.50;99.90
20700;DHT22;10511;51.232;9.420;2023-06-22T14:23:27;27.50;99.90
20700;DHT22;10511;51.232;9.420;2023-06-22T14:25:55;27.40;99.90
20700;DHT22;10511;51.232;9.420;2023-06-22T14:28:22;27.40;99.90
20700;DHT22;10511;51.232;9.420;2023-06-22T14:30:49;26.40;99.90
20700;DHT22;10511;51.232;9.420;2023-06-22T14:33:17;22.80;99.90
20700;DHT22;10511;51.232;9.420;2023-06-22T14:35:46;20.20;99.90
20700;DHT22;10511;51.232;9.420;2023-06-22T14:38:17;19.30;99.90
20700;DHT22;10511;51.232;9.420;2023-06-22T14:40:46;18.50;99.90
20700;DHT22;10511;51.232;9.420;2023-06-22T14:43:15;18.00;99.90
20700;DHT22;10511;51.232;9.420;2023-06-22T14:45:42;18.20;99.90
20700;DHT22;10511;51.232;9.420;2023-06-22T14:48:11;18.40;99.90
20700;DHT22;10511;51.232;9.420;2023-06-22T14:50:38;18.90;99.90
20700;DHT22;10511;51.232;9.420;2023-06-22T14:53:05;20.00;99.90
20700;DHT22;10511;51.232;9.420;2023-06-22T14:55:34;20.20;99.90
20700;DHT22;10511;51.232;9.420;2023-06-22T14:58:01;20.50;99.90
20700;DHT22;10511;51.232;9.420;2023-06-22T15:00:28;20.80;99.90
20700;DHT22;10511;51.232;9.420;2023-06-22T15:02:55;21.20;99.90
20700;DHT22;10511;51.232;9.420;2023-06-22T15:05:22;21.40;99.90
20700;DHT22;10511;51.232;9.420;2023-06-22T15:07:49;21.50;99.90
20700;DHT22;10511;51.232;9.420;2023-06-22T15:10:16;21.30;99.90
20700;DHT22;10511;51.232;9.420;2023-06-22T15:12:45;21.20;99.90
20700;DHT22;10511;51.232;9.420;2023-06-22T15:15:11;20.90;99.90
20700;DHT22;10511;51.232;9.420;2023-06-22T15:17:38;20.80;99.90
20700;DHT22;10511;51.232;9.420;2023-06-22T15:20:06;20.70;99.90
20700;DHT22;10511;51.232;9.420;2023-06-22T15:22:33;20.60;99.90
20700;DHT22;10511;51.232;9.420;2023-06-22T15:24:59;20.50;99.90
20700;DHT22;10511;51.232;9.420;2023-06-22T15:27:26;20.20;99.90
20700;DHT22;10511;51.232;9.420;2023-06-22T15:29:54;20.00;99.90
20700;DHT22;10511;51.232;9.420;2023-06-22T15:32:21;20.00;99.90
20700;DHT22;10511;51.232;9.420;2023-06-22T15:34:49;20.00;99.90